createdAt,value
2019-05-20T00:01:41.503Z,11.22
2019-05-20T00:04:10.052Z,14.58
2019-05-20T00:06:38.360Z,15.50
2019-05-20T00:09:06.884Z,11.85
2019-05-20T00:11:35.184Z,14.40
2019-05-20T00:14:03.787Z,12.77
2019-05-20T00:16:32.100Z,11.28
2019-05-20T00:19:00.405Z,13.53
2019-05-20T00:21:28.725Z,13.32
2019-05-20T00:23:57.065Z,12.23
2019-05-20T00:26:25.477Z,11.45
2019-05-20T00:28:53.802Z,12.47
2019-05-20T00:31:22.121Z,13.25
2019-05-20T00:33:50.449Z,13.85
2019-05-20T00:36:18.758Z,13.83
2019-05-20T00:38:48.696Z,15.18
2019-05-20T00:41:16.990Z,13.88
2019-05-20T00:43:45.323Z,13.45
2019-05-20T00:46:13.619Z,14.65
2019-05-20T00:48:42.029Z,16.42
2019-05-20T00:51:10.336Z,13.00
2019-05-20T00:53:38.677Z,17.57
2019-05-20T00:56:06.986Z,17.17
2019-05-20T00:58:35.302Z,13.83
2019-05-20T01:01:03.597Z,15.70
2019-05-20T01:03:31.925Z,17.23
2019-05-20T01:06:00.538Z,14.43
2019-05-20T01:08:28.846Z,17.00
2019-05-20T01:10:57.176Z,18.37
2019-05-20T01:13:25.471Z,15.77
2019-05-20T01:15:53.796Z,16.33
2019-05-20T01:18:22.464Z,16.57
2019-05-20T01:20:51.046Z,16.40
2019-05-20T01:23:19.350Z,18.52
2019-05-20T01:25:47.676Z,17.00
2019-05-20T01:28:15.975Z,17.70
2019-05-20T01:30:44.283Z,17.60
2019-05-20T01:33:14.355Z,17.92
2019-05-20T01:35:43.340Z,18.57
2019-05-20T01:38:11.913Z,18.40
2019-05-20T01:40:40.660Z,19.00
2019-05-20T01:43:08.919Z,18.82
2019-05-20T01:45:37.671Z,21.62
2019-05-20T01:48:06.012Z,20.60
2019-05-20T01:50:37.188Z,19.62
2019-05-20T01:53:05.514Z,21.45
2019-05-20T01:55:34.161Z,20.20
2019-05-20T01:58:02.488Z,19.07
2019-05-20T02:00:30.778Z,20.17
2019-05-20T02:02:59.086Z,19.52
2019-05-20T02:05:27.386Z,21.05
2019-05-20T02:07:55.714Z,20.37
2019-05-20T02:10:24.091Z,20.92
2019-05-20T02:12:52.883Z,20.60
2019-05-20T02:15:41.187Z,22.07
2019-05-20T02:18:09.495Z,20.60
2019-05-20T02:20:37.831Z,22.50
2019-05-20T02:23:16.543Z,22.10
2019-05-20T02:25:49.109Z,21.40
2019-05-20T02:28:17.394Z,23.50
2019-05-20T02:30:46.070Z,24.05
2019-05-20T02:33:14.476Z,23.12
2019-05-20T02:35:42.800Z,24.10
2019-05-20T02:38:11.415Z,25.37
2019-05-20T02:40:39.724Z,23.70
2019-05-20T02:43:08.290Z,25.55
2019-05-20T02:45:36.701Z,25.82
2019-05-20T02:48:05.084Z,26.33
2019-05-20T02:50:33.442Z,27.27
2019-05-20T02:53:01.738Z,27.20
2019-05-20T02:55:30.051Z,29.30
2019-05-20T02:57:58.361Z,28.77
2019-05-20T03:00:26.663Z,28.00
2019-05-20T03:02:54.989Z,32.63
2019-05-20T03:05:23.295Z,29.15
2019-05-20T03:07:51.602Z,26.62
2019-05-20T03:10:20.144Z,29.40
2019-05-20T03:12:48.548Z,30.48
2019-05-20T03:15:17.179Z,31.85
2019-05-20T03:17:45.543Z,30.97
2019-05-20T03:20:14.034Z,29.72
2019-05-20T03:22:42.367Z,30.40
2019-05-20T03:25:10.845Z,35.73
2019-05-20T03:27:44.209Z,30.30
2019-05-20T03:30:13.237Z,33.40
2019-05-20T03:32:41.865Z,32.38
2019-05-20T03:35:10.434Z,34.00
2019-05-20T03:37:39.056Z,32.87
2019-05-20T03:40:08.475Z,33.78
2019-05-20T03:42:36.779Z,33.30
2019-05-20T03:45:05.933Z,33.38
2019-05-20T03:47:34.260Z,34.95
2019-05-20T03:50:02.572Z,35.45
2019-05-20T03:52:30.873Z,38.53
2019-05-20T03:54:59.212Z,33.98
2019-05-20T03:57:27.512Z,41.70
2019-05-20T03:59:55.882Z,37.63
2019-05-20T04:02:24.168Z,38.85
2019-05-20T04:05:01.996Z,35.50
2019-05-20T04:07:22.804Z,36.98
2019-05-20T04:09:51.321Z,37.48
2019-05-20T04:12:19.604Z,38.03
2019-05-20T04:14:47.972Z,36.88
2019-05-20T04:17:16.825Z,39.80
2019-05-20T04:19:45.120Z,40.28
2019-05-20T04:22:13.417Z,43.75
2019-05-20T04:24:41.742Z,43.15
2019-05-20T04:27:10.317Z,44.50
2019-05-20T04:29:38.654Z,45.80
2019-05-20T04:32:06.917Z,43.73
2019-05-20T04:34:35.261Z,43.73
2019-05-20T04:37:03.600Z,45.08
2019-05-20T04:39:31.901Z,41.60
2019-05-20T04:42:00.239Z,44.25
2019-05-20T04:44:28.566Z,45.50
2019-05-20T04:46:57.961Z,47.55
2019-05-20T04:49:26.463Z,41.92
2019-05-20T04:51:55.223Z,48.10
2019-05-20T04:54:23.541Z,50.00
2019-05-20T04:56:51.907Z,45.05
2019-05-20T04:59:20.302Z,48.00
2019-05-20T05:01:48.600Z,46.50
2019-05-20T05:04:16.926Z,49.48
2019-05-20T05:06:45.273Z,49.27
2019-05-20T05:09:15.694Z,46.80
2019-05-20T05:11:43.660Z,49.20
2019-05-20T05:14:12.024Z,47.67
2019-05-20T05:16:40.365Z,49.77
2019-05-20T05:19:08.922Z,50.45
2019-05-20T05:21:37.323Z,51.00
2019-05-20T05:24:05.992Z,52.00
2019-05-20T05:26:34.319Z,51.08
2019-05-20T05:29:02.670Z,57.65
2019-05-20T05:31:31.072Z,53.68
2019-05-20T05:33:59.367Z,55.03
2019-05-20T05:36:27.989Z,54.08
2019-05-20T05:38:56.297Z,56.25
2019-05-20T05:41:24.601Z,52.08
2019-05-20T05:43:53.083Z,55.50
2019-05-20T05:46:21.414Z,55.17
2019-05-20T05:48:49.980Z,55.00
2019-05-20T05:51:18.301Z,52.50
2019-05-20T05:53:46.608Z,55.92
2019-05-20T05:56:14.912Z,51.95
2019-05-20T05:58:43.355Z,51.90
2019-05-20T06:01:11.645Z,61.70
2019-05-20T06:03:39.963Z,53.00
2019-05-20T06:06:12.527Z,52.88
2019-05-20T06:08:38.990Z,49.73
2019-05-20T06:11:07.362Z,69.07
2019-05-20T06:13:36.140Z,54.50
2019-05-20T06:16:04.425Z,47.88
2019-05-20T06:18:32.748Z,54.30
2019-05-20T06:21:01.047Z,47.83
2019-05-20T06:23:29.374Z,56.35
2019-05-20T06:25:57.695Z,52.83
2019-05-20T06:28:26.163Z,49.45
2019-05-20T06:30:54.486Z,52.23
2019-05-20T06:33:22.799Z,52.10
2019-05-20T06:35:51.421Z,53.78
2019-05-20T06:38:36.852Z,60.03
2019-05-20T06:41:07.301Z,52.90
2019-05-20T06:43:35.599Z,55.05
2019-05-20T06:46:03.974Z,50.60
2019-05-20T06:48:32.258Z,50.90
2019-05-20T06:51:00.671Z,53.50
2019-05-20T06:53:28.963Z,58.70
2019-05-20T06:55:57.361Z,57.43
2019-05-20T06:58:25.671Z,57.38
2019-05-20T07:00:54.294Z,57.95
2019-05-20T07:03:22.601Z,56.50
2019-05-20T07:05:51.235Z,60.80
2019-05-20T07:08:19.796Z,58.33
2019-05-20T07:10:48.117Z,55.38
2019-05-20T07:13:16.541Z,57.03
2019-05-20T07:15:44.915Z,56.35
2019-05-20T07:18:13.228Z,54.75
2019-05-20T07:20:41.551Z,54.35
2019-05-20T07:23:09.873Z,59.50
2019-05-20T07:25:38.184Z,58.45
2019-05-20T07:28:06.487Z,55.15
2019-05-20T07:30:35.542Z,60.75
2019-05-20T07:33:03.929Z,61.53
2019-05-20T07:35:32.591Z,56.73
2019-05-20T07:38:00.918Z,57.73
2019-05-20T07:40:33.149Z,60.05
2019-05-20T07:43:01.753Z,57.98
2019-05-20T07:45:33.135Z,58.93
2019-05-20T07:48:01.527Z,57.08
2019-05-20T07:50:30.106Z,62.30
2019-05-20T07:53:00.534Z,58.08
2019-05-20T07:55:30.214Z,58.95
2019-05-20T07:58:01.686Z,59.50
2019-05-20T08:00:30.016Z,61.90
2019-05-20T08:02:58.508Z,63.60
2019-05-20T08:05:26.819Z,59.23
2019-05-20T08:07:55.128Z,54.70
2019-05-20T08:10:23.502Z,56.53
2019-05-20T08:12:51.838Z,58.00
2019-05-20T08:15:20.114Z,58.80
2019-05-20T08:17:48.441Z,60.80
2019-05-20T08:20:17.278Z,60.50
2019-05-20T08:22:46.015Z,58.87
2019-05-20T08:25:14.396Z,56.88
2019-05-20T08:27:42.713Z,58.78
2019-05-20T08:30:13.984Z,61.23
2019-05-20T08:32:42.393Z,64.95
2019-05-20T08:35:11.391Z,57.78
2019-05-20T08:37:45.351Z,60.67
2019-05-20T08:40:09.827Z,60.98
2019-05-20T08:42:38.474Z,62.17
2019-05-20T08:45:10.186Z,55.47
2019-05-20T08:47:38.829Z,54.73
2019-05-20T08:50:12.699Z,55.28
2019-05-20T08:52:37.433Z,64.07
2019-05-20T08:55:05.994Z,58.73
2019-05-20T08:57:34.291Z,64.58
2019-05-20T09:00:03.328Z,69.30
2019-05-20T09:02:31.786Z,57.67
2019-05-20T09:05:00.332Z,54.67
2019-05-20T09:07:28.734Z,50.78
2019-05-20T09:09:57.310Z,44.35
2019-05-20T09:12:26.004Z,47.83
2019-05-20T09:14:54.375Z,43.13
2019-05-20T09:17:22.721Z,40.03
2019-05-20T09:19:55.594Z,40.25
2019-05-20T09:22:24.201Z,43.80
2019-05-20T09:24:52.657Z,40.57
2019-05-20T09:27:20.946Z,41.20
2019-05-20T09:29:49.317Z,42.83
2019-05-20T09:32:17.619Z,46.02
2019-05-20T09:34:46.235Z,45.80
2019-05-20T09:37:14.531Z,44.53
2019-05-20T09:39:42.887Z,47.67
2019-05-20T09:42:11.278Z,44.37
2019-05-20T09:44:39.584Z,48.80
2019-05-20T09:47:08.209Z,48.10
2019-05-20T09:49:36.589Z,51.08
2019-05-20T09:52:05.258Z,46.18
2019-05-20T09:54:33.588Z,46.33
2019-05-20T09:57:01.919Z,44.55
2019-05-20T09:59:42.646Z,43.08
2019-05-20T10:02:00.551Z,43.83
2019-05-20T10:04:28.862Z,43.15
2019-05-20T10:06:57.225Z,42.33
2019-05-20T10:09:25.528Z,43.68
2019-05-20T10:11:53.854Z,47.50
2019-05-20T10:14:22.223Z,43.17
2019-05-20T10:16:50.898Z,45.10
2019-05-20T10:19:19.196Z,39.50
2019-05-20T10:21:47.551Z,39.85
2019-05-20T10:24:16.129Z,43.20
2019-05-20T10:26:44.431Z,38.65
2019-05-20T10:29:12.722Z,41.70
2019-05-20T10:31:41.370Z,39.15
2019-05-20T10:34:09.942Z,39.15
2019-05-20T10:36:38.279Z,39.75
2019-05-20T10:39:07.853Z,39.18
2019-05-20T10:41:36.894Z,41.20
2019-05-20T10:44:05.194Z,37.23
2019-05-20T10:46:33.796Z,39.88
2019-05-20T10:49:02.111Z,40.28
2019-05-20T10:51:30.427Z,37.67
2019-05-20T10:53:58.717Z,34.95
2019-05-20T10:56:27.085Z,36.70
2019-05-20T10:58:55.441Z,35.50
2019-05-20T11:01:23.719Z,39.23
2019-05-20T11:03:52.063Z,35.28
2019-05-20T11:06:20.360Z,35.13
2019-05-20T11:08:48.736Z,34.40
2019-05-20T11:11:17.047Z,35.33
2019-05-20T11:13:45.336Z,34.35
2019-05-20T11:16:13.669Z,37.77
2019-05-20T11:18:41.966Z,35.40
2019-05-20T11:21:10.292Z,33.10
2019-05-20T11:23:38.587Z,30.62
2019-05-20T11:26:06.912Z,33.78
2019-05-20T11:28:35.329Z,33.05
2019-05-20T11:31:03.625Z,32.53
2019-05-20T11:33:32.272Z,31.95
2019-05-20T11:36:00.566Z,35.95
2019-05-20T11:38:28.893Z,35.65
2019-05-20T11:40:57.191Z,32.73
2019-05-20T11:43:25.903Z,34.98
2019-05-20T11:45:54.211Z,36.03
2019-05-20T11:48:22.843Z,41.25
2019-05-20T11:50:51.443Z,40.77
2019-05-20T11:53:19.828Z,36.03
2019-05-20T11:55:48.240Z,35.33
2019-05-20T11:58:16.844Z,40.55
2019-05-20T12:00:45.573Z,37.67
2019-05-20T12:03:13.913Z,34.88
2019-05-20T12:05:42.279Z,39.88
2019-05-20T12:08:10.640Z,33.78
2019-05-20T12:10:38.961Z,36.08
2019-05-20T12:13:07.256Z,33.98
2019-05-20T12:15:35.675Z,37.38
2019-05-20T12:18:03.992Z,34.80
2019-05-20T12:20:32.704Z,36.13
2019-05-20T12:23:00.998Z,40.75
2019-05-20T12:25:29.654Z,38.85
2019-05-20T12:27:58.335Z,38.05
2019-05-20T12:30:26.663Z,38.30
2019-05-20T12:33:17.195Z,38.73
2019-05-20T12:35:25.134Z,36.00
2019-05-20T12:37:54.145Z,37.93
2019-05-20T12:40:22.621Z,39.30
2019-05-20T12:42:50.975Z,39.05
2019-05-20T12:45:19.374Z,38.85
2019-05-20T12:47:47.740Z,38.58
2019-05-20T12:50:17.603Z,37.93
2019-05-20T12:52:45.917Z,38.63
2019-05-20T12:55:14.999Z,36.05
2019-05-20T12:57:43.590Z,37.20
2019-05-20T13:00:13.974Z,40.70
2019-05-20T13:02:42.634Z,36.90
2019-05-20T13:05:11.270Z,37.25
2019-05-20T13:07:39.572Z,36.65
2019-05-20T13:10:26.941Z,43.92
2019-05-20T13:12:40.039Z,53.50
2019-05-20T13:15:08.932Z,40.85
2019-05-20T13:17:42.881Z,41.90
2019-05-20T13:20:08.197Z,39.48
2019-05-20T13:22:36.557Z,37.75
2019-05-20T13:25:06.749Z,38.30
2019-05-20T13:27:35.040Z,39.33
2019-05-20T13:30:04.585Z,39.03
2019-05-20T13:32:33.186Z,40.63
2019-05-20T13:35:01.531Z,38.45
2019-05-20T13:37:29.838Z,39.80
2019-05-20T13:40:02.513Z,36.50
2019-05-20T13:42:28.187Z,39.60
2019-05-20T13:44:56.808Z,36.50
2019-05-20T13:47:25.137Z,40.63
2019-05-20T13:49:53.695Z,38.67
2019-05-20T13:52:22.024Z,35.95
2019-05-20T13:54:50.314Z,34.75
2019-05-20T13:57:18.911Z,34.95
2019-05-20T13:59:47.207Z,35.58
2019-05-20T14:02:15.505Z,37.33
2019-05-20T14:04:43.845Z,35.85
2019-05-20T14:07:12.142Z,35.68
2019-05-20T14:12:26.787Z,35.73
2019-05-20T14:14:55.233Z,34.75
2019-05-20T14:17:23.702Z,35.03
2019-05-20T14:19:52.044Z,39.45
2019-05-20T14:22:20.330Z,40.85
2019-05-20T14:24:48.899Z,38.28
2019-05-20T14:27:17.240Z,40.70
2019-05-20T14:29:45.535Z,37.65
2019-05-20T14:32:13.843Z,37.53
2019-05-20T14:34:42.150Z,35.30
2019-05-20T14:37:10.453Z,35.23
2019-05-20T14:39:38.801Z,36.05
2019-05-20T14:42:07.409Z,35.40
2019-05-20T14:44:36.130Z,35.70
2019-05-20T14:47:04.819Z,34.80
2019-05-20T14:49:33.505Z,44.00
2019-05-20T14:52:02.190Z,47.03
2019-05-20T14:54:30.483Z,47.30
2019-05-20T14:56:58.801Z,46.03
2019-05-20T14:59:27.179Z,48.77
2019-05-20T15:01:55.475Z,58.00
2019-05-20T15:04:24.059Z,61.15
2019-05-20T15:06:52.365Z,63.13
2019-05-20T15:09:20.674Z,59.50
2019-05-20T15:11:49.252Z,51.18
2019-05-20T15:14:17.568Z,49.03
2019-05-20T15:16:45.873Z,49.40
2019-05-20T15:19:14.205Z,51.80
2019-05-20T15:21:42.929Z,52.08
2019-05-20T15:24:11.261Z,52.93
2019-05-20T15:26:39.645Z,47.80
2019-05-20T15:29:07.949Z,48.47
2019-05-20T15:31:36.329Z,48.37
2019-05-20T15:34:04.635Z,49.60
2019-05-20T15:36:32.991Z,41.95
2019-05-20T15:39:01.306Z,47.27
2019-05-20T15:41:30.293Z,46.28
2019-05-20T15:43:58.668Z,68.07
2019-05-20T15:46:26.991Z,43.85
2019-05-20T15:48:55.689Z,45.03
2019-05-20T15:51:24.318Z,42.45
2019-05-20T15:53:52.635Z,38.67
2019-05-20T15:56:20.949Z,38.25
2019-05-20T15:58:49.273Z,39.00
2019-05-20T16:01:17.575Z,33.95
2019-05-20T16:03:46.155Z,42.73
2019-05-20T16:06:14.458Z,42.67
2019-05-20T16:08:42.777Z,48.38
2019-05-20T16:11:11.180Z,39.40
2019-05-20T16:13:39.564Z,38.40
2019-05-20T16:16:07.867Z,35.28
2019-05-20T16:18:36.173Z,34.92
2019-05-20T16:21:04.473Z,35.70
2019-05-20T16:23:32.787Z,37.83
2019-05-20T16:26:01.443Z,40.03
2019-05-20T16:28:29.685Z,43.42
2019-05-20T16:30:58.004Z,61.28
2019-05-20T16:33:26.355Z,49.63
2019-05-20T16:35:54.698Z,38.73
2019-05-20T16:38:23.015Z,35.40
2019-05-20T16:40:51.344Z,37.03
2019-05-20T16:43:19.941Z,37.73
2019-05-20T16:45:48.260Z,36.88
2019-05-20T16:48:16.755Z,36.65
2019-05-20T16:50:45.389Z,42.75
2019-05-20T16:53:13.685Z,40.28
2019-05-20T16:55:41.980Z,46.05
2019-05-20T16:58:10.296Z,37.83
2019-05-20T17:00:39.057Z,45.28
2019-05-20T17:03:07.376Z,42.43
2019-05-20T17:05:35.684Z,38.90
2019-05-20T17:08:04.000Z,39.73
2019-05-20T17:10:32.309Z,48.48
2019-05-20T17:13:00.626Z,48.30
2019-05-20T17:15:28.972Z,46.13
2019-05-20T17:17:57.555Z,45.50
2019-05-20T17:20:25.879Z,44.38
2019-05-20T17:22:54.214Z,42.17
2019-05-20T17:25:22.572Z,40.35
2019-05-20T17:27:50.875Z,37.38
2019-05-20T17:30:19.297Z,38.38
2019-05-20T17:32:47.600Z,38.73
2019-05-20T17:35:16.409Z,39.65
2019-05-20T17:37:44.719Z,38.10
2019-05-20T17:40:13.317Z,47.53
2019-05-20T17:42:41.642Z,52.35
2019-05-20T17:45:10.413Z,47.90
2019-05-20T17:47:38.779Z,51.18
2019-05-20T17:50:07.516Z,45.00
2019-05-20T17:52:35.817Z,43.57
2019-05-20T17:55:05.961Z,41.53
2019-05-20T17:57:34.377Z,42.75
2019-05-20T18:00:03.604Z,43.68
2019-05-20T18:02:31.952Z,55.17
2019-05-20T18:05:00.246Z,57.27
2019-05-20T18:07:28.662Z,48.80
2019-05-20T18:09:56.968Z,44.15
2019-05-20T18:12:25.579Z,46.88
2019-05-20T18:14:55.788Z,44.90
2019-05-20T18:17:24.137Z,42.75
2019-05-20T18:19:52.467Z,41.53
2019-05-20T18:22:20.856Z,40.98
2019-05-20T18:24:49.224Z,40.25
2019-05-20T18:27:17.648Z,42.58
2019-05-20T18:29:46.104Z,46.77
2019-05-20T18:32:14.386Z,44.73
2019-05-20T18:34:42.758Z,47.67
2019-05-20T18:37:11.411Z,48.80
2019-05-20T18:39:40.102Z,55.33
2019-05-20T18:42:08.677Z,54.50
2019-05-20T18:44:36.967Z,44.88
2019-05-20T18:47:05.455Z,44.63
2019-05-20T18:49:33.774Z,46.68
2019-05-20T18:52:02.104Z,39.27
2019-05-20T18:54:30.663Z,41.83
2019-05-20T18:56:59.001Z,40.30
2019-05-20T18:59:27.309Z,46.80
2019-05-20T19:02:04.726Z,46.93
2019-05-20T19:04:25.664Z,48.10
2019-05-20T19:06:54.131Z,44.67
2019-05-20T19:09:22.464Z,42.62
2019-05-20T19:11:51.078Z,44.45
2019-05-20T19:14:19.415Z,42.62
2019-05-20T19:16:47.724Z,41.02
2019-05-20T19:19:16.103Z,43.38
2019-05-20T19:21:44.406Z,47.00
2019-05-20T19:24:12.745Z,44.03
2019-05-20T19:26:41.350Z,43.85
2019-05-20T19:29:10.113Z,43.85
2019-05-20T19:31:38.410Z,40.80
2019-05-20T19:34:06.714Z,44.48
2019-05-20T19:36:37.950Z,45.83
2019-05-20T19:39:07.558Z,42.73
2019-05-20T19:41:35.883Z,40.55
2019-05-20T19:44:04.175Z,45.17
2019-05-20T19:46:32.499Z,41.35
2019-05-20T19:49:01.142Z,48.42
2019-05-20T19:51:29.465Z,52.45
2019-05-20T19:53:57.850Z,49.20
2019-05-20T19:56:26.247Z,48.35
2019-05-20T19:58:54.556Z,47.13
2019-05-20T20:01:22.846Z,46.55
2019-05-20T20:03:52.312Z,46.35
2019-05-20T20:06:20.875Z,47.00
2019-05-20T20:08:49.516Z,43.85
2019-05-20T20:11:18.092Z,43.30
2019-05-20T20:13:47.180Z,43.17
2019-05-20T20:16:17.887Z,46.48
2019-05-20T20:18:45.654Z,44.95
2019-05-20T20:21:13.961Z,43.10
2019-05-20T20:23:42.283Z,40.60
2019-05-20T20:26:10.586Z,43.65
2019-05-20T20:28:39.195Z,46.23
2019-05-20T20:31:10.768Z,44.58
2019-05-20T20:33:37.528Z,41.58
2019-05-20T20:36:05.837Z,40.73
2019-05-20T20:38:34.137Z,42.85
2019-05-20T20:41:02.732Z,44.48
2019-05-20T20:43:32.266Z,39.30
2019-05-20T20:46:00.797Z,38.53
2019-05-20T20:48:29.071Z,38.83
2019-05-20T20:50:57.399Z,37.37
2019-05-20T20:53:25.870Z,39.87
2019-05-20T20:55:54.170Z,40.78
2019-05-20T20:58:22.480Z,39.35
2019-05-20T21:00:50.774Z,38.10
2019-05-20T21:03:19.093Z,38.50
2019-05-20T21:05:47.382Z,42.13
2019-05-20T21:08:16.015Z,40.23
2019-05-20T21:10:44.602Z,36.85
2019-05-20T21:13:13.282Z,38.53
2019-05-20T21:15:41.577Z,40.17
2019-05-20T21:18:09.871Z,36.45
2019-05-20T21:20:38.526Z,37.40
2019-05-20T21:23:07.110Z,37.78
2019-05-20T21:25:35.436Z,34.23
2019-05-20T21:28:03.735Z,33.30
2019-05-20T21:30:32.323Z,37.50
2019-05-20T21:33:09.251Z,37.42
2019-05-20T21:35:30.981Z,35.05
2019-05-20T21:37:59.292Z,38.15
2019-05-20T21:40:28.042Z,35.25
2019-05-20T21:42:56.363Z,37.00
2019-05-20T21:45:24.983Z,38.70
2019-05-20T21:47:53.408Z,40.15
2019-05-20T21:50:21.725Z,39.60
2019-05-20T21:52:50.330Z,40.73
2019-05-20T21:55:18.660Z,38.78
2019-05-20T21:57:46.959Z,39.20
2019-05-20T22:00:34.097Z,40.03
2019-05-20T22:03:02.758Z,39.00
2019-05-20T22:05:31.525Z,38.45
2019-05-20T22:07:59.759Z,38.73
2019-05-20T22:10:28.429Z,40.73
2019-05-20T22:12:56.747Z,42.83
2019-05-20T22:15:25.037Z,43.52
2019-05-20T22:17:53.353Z,39.50
2019-05-20T22:20:21.656Z,35.65
2019-05-20T22:22:51.628Z,37.65
2019-05-20T22:25:19.920Z,41.10
2019-05-20T22:27:48.515Z,45.38
2019-05-20T22:30:17.406Z,41.73
2019-05-20T22:32:45.825Z,43.55
2019-05-20T22:35:14.110Z,44.03
2019-05-20T22:37:42.414Z,42.78
2019-05-20T22:40:11.134Z,40.35
2019-05-20T22:42:39.434Z,44.00
2019-05-20T22:45:08.391Z,42.08
2019-05-20T22:47:36.970Z,40.20
2019-05-20T22:50:06.260Z,40.80
2019-05-20T22:52:34.859Z,42.95
2019-05-20T22:55:03.947Z,43.58
2019-05-20T22:57:32.242Z,45.43
2019-05-20T23:00:00.590Z,45.08
2019-05-20T23:02:28.900Z,42.90
2019-05-20T23:05:15.757Z,42.75
2019-05-20T23:07:44.114Z,44.67
2019-05-20T23:10:12.673Z,46.28
2019-05-20T23:12:41.016Z,48.48
2019-05-20T23:15:09.661Z,49.73
2019-05-20T23:17:38.043Z,47.40
2019-05-20T23:20:07.114Z,46.50
2019-05-20T23:22:35.452Z,48.70
2019-05-20T23:25:03.816Z,47.30
2019-05-20T23:27:32.150Z,50.70
2019-05-20T23:30:00.438Z,50.43
2019-05-20T23:32:28.750Z,54.38
2019-05-20T23:34:57.047Z,49.98
2019-05-20T23:37:25.354Z,52.03
2019-05-20T23:39:53.695Z,57.03
2019-05-20T23:42:22.000Z,51.40
2019-05-20T23:44:50.306Z,53.85
2019-05-20T23:47:18.631Z,51.55
2019-05-20T23:49:46.963Z,56.18
2019-05-20T23:52:15.263Z,62.48
2019-05-20T23:54:43.606Z,59.45
2019-05-20T23:57:11.949Z,64.07
2019-05-20T23:59:40.539Z,67.57
